createdAt,value
2023-05-20T00:01:09.797Z,102060.33
2023-05-20T00:04:58.956Z,102059.60
2023-05-20T00:08:14.670Z,102057.48
2023-05-20T00:11:35.158Z,102051.63
2023-05-20T00:14:34.570Z,102050.46
2023-05-20T00:17:46.561Z,102051.80
2023-05-20T00:20:55.426Z,102046.22
2023-05-20T00:24:29.863Z,102047.44
2023-05-20T00:27:47.570Z,102048.48
2023-05-20T00:31:10.926Z,102047.89
2023-05-20T00:34:36.194Z,102049.58
2023-05-20T00:37:55.389Z,102047.50
2023-05-20T00:41:04.860Z,102051.23
2023-05-20T00:44:43.905Z,102044.71
2023-05-20T00:48:32.245Z,102044.50
2023-05-20T00:52:12.180Z,102040.23
2023-05-20T00:56:01.427Z,102042.89
2023-05-20T00:59:32.445Z,102039.34
2023-05-20T01:03:14.152Z,102039.73
2023-05-20T01:06:34.326Z,102035.56
2023-05-20T01:09:38.639Z,102037.84
2023-05-20T01:13:11.472Z,102029.91
2023-05-20T01:16:42.819Z,102032.77
2023-05-20T01:20:43.751Z,102032.19
2023-05-20T01:23:51.373Z,102033.31
2023-05-20T01:27:11.600Z,102035.80
2023-05-20T01:30:44.528Z,102032.26
2023-05-20T01:34:26.233Z,102034.30
2023-05-20T01:37:58.100Z,102027.73
2023-05-20T01:41:00.162Z,102031.64
2023-05-20T01:44:29.081Z,102030.80
2023-05-20T01:48:07.889Z,102029.71
2023-05-20T01:51:39.735Z,102026.22
2023-05-20T01:54:50.977Z,102026.91
2023-05-20T02:01:32.629Z,102026.40
2023-05-20T02:06:02.046Z,102025.52
2023-05-20T02:10:30.909Z,102013.55
2023-05-20T02:14:59.810Z,102013.55
2023-05-20T02:19:30.992Z,102012.34
2023-05-20T02:24:00.155Z,102014.88
2023-05-20T02:28:29.283Z,102013.95
2023-05-20T02:32:58.464Z,102013.95
2023-05-20T02:37:27.274Z,102013.19
2023-05-20T02:41:56.426Z,102015.04
2023-05-20T02:46:25.792Z,102020.87
2023-05-20T02:50:55.254Z,102026.45
2023-05-20T02:55:25.527Z,102028.77
2023-05-20T02:59:55.190Z,102027.91
2023-05-20T03:04:24.411Z,102025.41
2023-05-20T03:08:53.548Z,102030.73
2023-05-20T03:13:23.120Z,102029.04
2023-05-20T03:17:52.696Z,102036.65
2023-05-20T03:22:21.563Z,102037.89
2023-05-20T03:26:50.759Z,102043.29
2023-05-20T03:31:20.160Z,102042.61
2023-05-20T03:35:49.665Z,102046.23
2023-05-20T03:40:18.901Z,102044.47
2023-05-20T03:44:48.379Z,102050.66
2023-05-20T03:49:17.256Z,102049.09
2023-05-20T03:53:46.381Z,102055.56
2023-05-20T04:05:05.330Z,102063.36
2023-05-20T04:08:47.333Z,102059.36
2023-05-20T04:12:21.894Z,102065.83
2023-05-20T04:16:11.229Z,102064.64
2023-05-20T04:20:00.661Z,102064.34
2023-05-20T04:23:49.890Z,102058.94
2023-05-20T04:27:39.050Z,102063.27
2023-05-20T04:31:28.266Z,102062.42
2023-05-20T04:35:17.276Z,102059.80
2023-05-20T04:38:59.404Z,102060.48
2023-05-20T04:42:36.744Z,102061.42
2023-05-20T04:46:25.299Z,102058.28
2023-05-20T04:50:14.582Z,102052.18
2023-05-20T04:54:03.849Z,102053.60
2023-05-20T04:57:45.964Z,102052.21
2023-05-20T05:01:26.169Z,102052.90
2023-05-20T05:05:05.782Z,102058.48
2023-05-20T05:08:55.095Z,102063.74
2023-05-20T05:12:44.455Z,102057.34
2023-05-20T05:16:39.014Z,102059.54
2023-05-20T05:20:28.152Z,102058.23
2023-05-20T05:24:16.369Z,102057.92
2023-05-20T05:28:05.410Z,102055.33
2023-05-20T05:31:57.565Z,102059.53
2023-05-20T05:35:47.019Z,102059.70
2023-05-20T05:39:36.183Z,102062.05
2023-05-20T05:43:18.447Z,102060.81
2023-05-20T05:47:07.193Z,102059.28
2023-05-20T05:50:56.712Z,102057.50
2023-05-20T05:54:46.198Z,102066.06
2023-05-20T05:58:35.243Z,102061.39
2023-05-20T06:02:16.169Z,102064.19
2023-05-20T06:10:18.920Z,102050.90
2023-05-20T06:14:08.201Z,102053.09
2023-05-20T06:17:57.009Z,102055.82
2023-05-20T06:21:43.381Z,102060.54
2023-05-20T06:25:32.449Z,102066.44
2023-05-20T06:28:53.295Z,102062.59
2023-05-20T06:32:37.209Z,102060.77
2023-05-20T06:36:16.185Z,102064.59
2023-05-20T06:40:05.277Z,102064.42
2023-05-20T06:43:52.619Z,102062.36
2023-05-20T06:47:50.063Z,102058.14
2023-05-20T06:51:39.244Z,102047.25
2023-05-20T06:55:13.623Z,102048.34
2023-05-20T06:58:58.104Z,102048.09
2023-05-20T07:02:47.210Z,102041.71
2023-05-20T07:06:36.715Z,102039.84
2023-05-20T07:10:17.669Z,102031.15
2023-05-20T07:14:06.881Z,102026.27
2023-05-20T07:17:45.414Z,102026.04
2023-05-20T07:21:35.166Z,102023.69
2023-05-20T07:24:52.640Z,102015.02
2023-05-20T07:28:34.821Z,102009.44
2023-05-20T07:32:10.093Z,102006.13
2023-05-20T07:35:32.273Z,102011.34
2023-05-20T07:39:06.750Z,102012.52
2023-05-20T07:42:38.127Z,102014.33
2023-05-20T07:45:53.579Z,102007.13
2023-05-20T07:49:34.977Z,102010.15
2023-05-20T07:53:24.265Z,102009.55
2023-05-20T07:57:08.679Z,102006.77
2023-05-20T08:00:58.452Z,101999.27
2023-05-20T08:04:01.391Z,101993.41
2023-05-20T08:07:45.640Z,101994.90
2023-05-20T08:11:13.286Z,101993.52
2023-05-20T08:14:37.973Z,101991.45
2023-05-20T08:17:32.003Z,101994.23
2023-05-20T08:20:35.750Z,101987.27
2023-05-20T08:24:09.941Z,101984.42
2023-05-20T08:27:58.807Z,101982.58
2023-05-20T08:31:46.813Z,101983.88
2023-05-20T08:35:31.929Z,101989.73
2023-05-20T08:39:05.982Z,101986.56
2023-05-20T08:42:55.286Z,101985.55
2023-05-20T08:46:45.067Z,101987.30
2023-05-20T08:50:24.145Z,101982.61
2023-05-20T08:54:13.828Z,101979.14
2023-05-20T08:58:05.084Z,101984.83
2023-05-20T09:01:51.974Z,101987.61
2023-05-20T09:05:33.145Z,101985.65
2023-05-20T09:09:22.403Z,101990.67
2023-05-20T09:13:11.811Z,101988.64
2023-05-20T09:17:01.678Z,101991.90
2023-05-20T09:20:53.735Z,101989.81
2023-05-20T09:24:26.763Z,101996.08
2023-05-20T09:28:16.753Z,101987.59
2023-05-20T09:31:58.557Z,101986.45
2023-05-20T09:35:47.681Z,101981.32
2023-05-20T09:39:36.919Z,101982.14
2023-05-20T09:43:25.057Z,101988.38
2023-05-20T09:47:12.669Z,101986.26
2023-05-20T09:50:56.324Z,101975.89
2023-05-20T09:54:45.599Z,101974.49
2023-05-20T09:58:37.562Z,101975.33
2023-05-20T10:02:26.747Z,101971.38
2023-05-20T10:05:55.593Z,101970.46
2023-05-20T10:09:46.313Z,101971.17
2023-05-20T10:13:17.583Z,101968.89
2023-05-20T10:17:12.344Z,101960.84
2023-05-20T10:21:02.039Z,101957.61
2023-05-20T10:25:10.952Z,101952.98
2023-05-20T10:29:05.496Z,101954.71
2023-05-20T10:32:54.632Z,101955.85
2023-05-20T10:36:29.148Z,101953.64
2023-05-20T10:40:18.731Z,101946.98
2023-05-20T10:43:49.156Z,101938.79
2023-05-20T10:47:26.329Z,101939.81
2023-05-20T10:51:18.325Z,101943.00
2023-05-20T10:54:56.975Z,101945.66
2023-05-20T10:58:46.845Z,101946.06
2023-05-20T11:02:36.039Z,101935.33
2023-05-20T11:06:20.864Z,101932.56
2023-05-20T11:10:09.908Z,101932.84
2023-05-20T11:13:55.145Z,101925.61
2023-05-20T11:17:46.304Z,101915.11
2023-05-20T11:21:23.003Z,101904.23
2023-05-20T11:24:55.930Z,101895.08
2023-05-20T11:28:44.932Z,101891.23
2023-05-20T11:32:28.090Z,101894.97
2023-05-20T11:36:29.731Z,101888.59
2023-05-20T11:40:18.820Z,101875.45
2023-05-20T11:44:08.263Z,101875.20
2023-05-20T11:48:01.647Z,101873.55
2023-05-20T11:51:35.343Z,101879.71
2023-05-20T11:55:24.042Z,101886.33
2023-05-20T11:59:00.677Z,101885.83
2023-05-20T12:02:46.588Z,101880.39
2023-05-20T12:06:36.997Z,101879.17
2023-05-20T12:10:26.186Z,101869.89
2023-05-20T12:13:59.326Z,101870.17
2023-05-20T12:18:14.750Z,101866.88
2023-05-20T12:21:35.597Z,101860.94
2023-05-20T12:25:06.953Z,101861.73
2023-05-20T12:28:55.289Z,101852.62
2023-05-20T12:32:44.776Z,101843.44
2023-05-20T12:36:19.251Z,101838.55
2023-05-20T12:39:52.137Z,101836.66
2023-05-20T12:43:41.624Z,101839.73
2023-05-20T12:47:13.422Z,101837.59
2023-05-20T12:50:52.368Z,101839.73
2023-05-20T12:54:30.987Z,101825.59
2023-05-20T12:58:14.582Z,101816.11
2023-05-20T13:02:03.715Z,101818.29
2023-05-20T13:05:52.996Z,101824.14
2023-05-20T13:09:08.706Z,101829.88
2023-05-20T13:12:58.776Z,101832.36
2023-05-20T13:16:28.424Z,101825.88
2023-05-20T13:20:01.089Z,101823.45
2023-05-20T13:23:50.770Z,101815.24
2023-05-20T13:27:40.093Z,101808.80
2023-05-20T13:31:19.399Z,101806.33
2023-05-20T13:34:59.015Z,101800.13
2023-05-20T13:38:48.824Z,101792.15
2023-05-20T13:41:39.728Z,101790.44
2023-05-20T13:45:20.948Z,101789.33
2023-05-20T13:48:52.603Z,101787.20
2023-05-20T13:51:46.581Z,101785.04
2023-05-20T13:54:49.245Z,101777.38
2023-05-20T13:57:56.076Z,101776.14
2023-05-20T14:01:35.020Z,101773.37
2023-05-20T14:05:15.880Z,101770.41
2023-05-20T14:08:37.252Z,101769.48
2023-05-20T14:12:16.418Z,101770.58
2023-05-20T14:22:05.056Z,101761.02
2023-05-20T14:25:38.011Z,101759.95
2023-05-20T14:29:27.337Z,101749.45
2023-05-20T14:33:17.754Z,101748.89
2023-05-20T14:37:08.716Z,101746.20
2023-05-20T14:41:34.266Z,101732.70
2023-05-20T14:45:46.352Z,101739.36
2023-05-20T14:49:28.764Z,101738.99
2023-05-20T14:52:58.803Z,101737.12
2023-05-20T14:56:09.744Z,101728.22
2023-05-20T14:59:36.805Z,101728.92
2023-05-20T15:03:00.604Z,101728.44
2023-05-20T15:06:32.068Z,101714.26
2023-05-20T15:09:59.240Z,101715.71
2023-05-20T15:14:08.789Z,101712.60
2023-05-20T15:17:27.802Z,101708.54
2023-05-20T15:21:10.432Z,101706.92
2023-05-20T15:24:33.311Z,101698.50
2023-05-20T15:28:23.315Z,101695.91
2023-05-20T15:31:27.267Z,101689.81
2023-05-20T15:35:16.735Z,101686.38
2023-05-20T15:39:06.202Z,101681.23
2023-05-20T15:42:50.411Z,101676.06
2023-05-20T15:46:45.054Z,101667.23
2023-05-20T15:50:38.674Z,101667.52
2023-05-20T15:53:48.752Z,101660.61
2023-05-20T15:57:38.494Z,101666.61
2023-05-20T16:01:08.454Z,101665.70
2023-05-20T16:04:48.450Z,101664.88
2023-05-20T16:08:12.960Z,101661.91
2023-05-20T16:12:01.904Z,101659.39
2023-05-20T16:15:17.485Z,101656.69
2023-05-20T16:18:56.947Z,101650.83
2023-05-20T16:22:39.104Z,101655.30
2023-05-20T16:26:22.170Z,101647.91
2023-05-20T16:29:41.649Z,101650.32
2023-05-20T16:32:54.809Z,101647.22
2023-05-20T16:36:45.384Z,101647.05
2023-05-20T16:40:35.965Z,101640.42
2023-05-20T16:44:09.698Z,101633.98
2023-05-20T16:47:58.961Z,101629.21
2023-05-20T16:51:47.827Z,101630.80
2023-05-20T16:55:19.787Z,101630.99
2023-05-20T16:59:09.071Z,101628.11
2023-05-20T17:02:58.381Z,101627.55
2023-05-20T17:06:48.442Z,101626.64
2023-05-20T17:10:39.125Z,101629.09
2023-05-20T17:14:24.225Z,101625.88
2023-05-20T17:18:20.996Z,101624.46
2023-05-20T17:22:10.896Z,101624.52
2023-05-20T17:26:00.661Z,101619.52
2023-05-20T17:29:38.770Z,101618.60
2023-05-20T17:32:57.022Z,101619.73
2023-05-20T17:36:33.733Z,101609.65
2023-05-20T17:40:13.766Z,101611.79
2023-05-20T17:43:29.427Z,101614.59
2023-05-20T17:46:48.589Z,101613.56
2023-05-20T17:50:00.211Z,101611.09
2023-05-20T17:53:26.115Z,101611.54
2023-05-20T17:57:15.431Z,101608.91
2023-05-20T18:00:31.763Z,101608.31
2023-05-20T18:04:21.543Z,101601.27
2023-05-20T18:07:51.073Z,101596.63
2023-05-20T18:11:40.593Z,101589.03
2023-05-20T18:15:31.045Z,101582.52
2023-05-20T18:19:21.617Z,101582.95
2023-05-20T18:23:01.921Z,101577.92
2023-05-20T18:26:34.703Z,101572.60
2023-05-20T18:30:03.447Z,101572.76
2023-05-20T18:33:46.537Z,101572.66
2023-05-20T18:36:46.210Z,101573.89
2023-05-20T18:40:15.567Z,101573.36
2023-05-20T18:44:02.815Z,101575.48
2023-05-20T18:47:40.849Z,101576.73
2023-05-20T18:51:21.644Z,101579.90
2023-05-20T18:54:31.451Z,101585.79
2023-05-20T18:57:22.654Z,101585.67
2023-05-20T19:00:46.045Z,101588.48
2023-05-20T19:04:35.635Z,101583.81
2023-05-20T19:08:25.967Z,101582.20
2023-05-20T19:12:11.651Z,101584.97
2023-05-20T19:16:18.633Z,101587.10
2023-05-20T19:20:02.573Z,101588.14
2023-05-20T19:23:51.798Z,101585.19
2023-05-20T19:27:56.613Z,101589.41
2023-05-20T19:31:30.343Z,101593.57
2023-05-20T19:34:50.714Z,101591.88
2023-05-20T19:38:40.509Z,101591.20
2023-05-20T19:42:51.806Z,101592.03
2023-05-20T19:46:31.414Z,101588.77
2023-05-20T19:50:20.959Z,101590.27
2023-05-20T19:54:10.648Z,101587.18
2023-05-20T19:57:57.359Z,101588.95
2023-05-20T20:01:48.837Z,101590.41
2023-05-20T20:05:46.318Z,101584.61
2023-05-20T20:09:56.548Z,101585.41
2023-05-20T20:13:45.474Z,101591.59
2023-05-20T20:17:55.444Z,101590.84
2023-05-20T20:21:46.478Z,101593.30
2023-05-20T20:25:20.783Z,101595.81
2023-05-20T20:28:58.759Z,101593.08
2023-05-20T20:32:48.968Z,101590.73
2023-05-20T20:36:38.470Z,101593.33
2023-05-20T20:40:31.556Z,101594.66
2023-05-20T20:44:20.272Z,101598.22
2023-05-20T20:48:00.928Z,101597.86
2023-05-20T20:51:50.502Z,101598.37
2023-05-20T20:55:39.987Z,101598.20
2023-05-20T20:59:31.337Z,101596.92
2023-05-20T21:03:03.818Z,101598.42
2023-05-20T21:06:55.273Z,101597.20
2023-05-20T21:10:44.729Z,101595.08
2023-05-20T21:14:12.824Z,101596.40
2023-05-20T21:18:02.146Z,101598.21
2023-05-20T21:21:51.969Z,101588.80
2023-05-20T21:25:41.615Z,101584.14
2023-05-20T21:29:23.301Z,101583.14
2023-05-20T21:33:13.471Z,101581.55
2023-05-20T21:37:03.124Z,101581.61
2023-05-20T21:40:45.753Z,101579.73
2023-05-20T21:44:35.326Z,101581.20
2023-05-20T21:48:11.298Z,101576.37
2023-05-20T21:52:00.724Z,101577.27
2023-05-20T21:55:34.344Z,101572.76
2023-05-20T21:59:17.097Z,101573.84
2023-05-20T22:02:30.004Z,101577.84
2023-05-20T22:06:05.123Z,101573.77
2023-05-20T22:09:45.382Z,101577.41
2023-05-20T22:13:04.504Z,101574.89
2023-05-20T22:16:56.235Z,101575.77
2023-05-20T22:20:46.397Z,101579.89
2023-05-20T22:24:35.475Z,101575.28
2023-05-20T22:28:15.100Z,101570.89
2023-05-20T22:31:43.607Z,101567.93
2023-05-20T22:35:00.416Z,101572.59
2023-05-20T22:38:36.049Z,101570.13
2023-05-20T22:42:04.830Z,101570.98
2023-05-20T22:45:39.248Z,101568.17
2023-05-20T22:49:14.634Z,101567.67
2023-05-20T22:52:56.362Z,101567.39
2023-05-20T22:56:37.073Z,101568.23
2023-05-20T23:00:22.524Z,101569.84
2023-05-20T23:04:10.752Z,101567.89
2023-05-20T23:08:00.270Z,101563.48
2023-05-20T23:11:40.382Z,101560.54
2023-05-20T23:15:29.729Z,101560.58
2023-05-20T23:19:19.900Z,101559.13
2023-05-20T23:23:11.572Z,101553.73
2023-05-20T23:27:01.922Z,101549.03
2023-05-20T23:30:35.709Z,101546.83
2023-05-20T23:34:25.208Z,101553.66
2023-05-20T23:38:15.259Z,101552.63
2023-05-20T23:41:56.000Z,101554.95
2023-05-20T23:45:45.705Z,101549.77
2023-05-20T23:49:35.453Z,101547.34
2023-05-20T23:53:24.750Z,101547.91
2023-05-20T23:57:12.951Z,101549.23
